createdAt,value
2018-12-24T00:00:17.758Z,7.28
2018-12-24T00:00:48.879Z,7.27
2018-12-24T00:01:19.983Z,7.27
2018-12-24T00:01:51.134Z,7.26
2018-12-24T00:02:22.232Z,7.26
2018-12-24T00:02:53.338Z,7.27
2018-12-24T00:03:24.450Z,7.26
2018-12-24T00:04:36.901Z,7.32
2018-12-24T00:05:08.053Z,7.29
2018-12-24T00:05:39.212Z,7.30
2018-12-24T00:06:10.353Z,7.31
2018-12-24T00:06:41.501Z,7.32
2018-12-24T00:07:12.647Z,7.32
2018-12-24T00:07:43.839Z,7.33
2018-12-24T00:08:15.190Z,7.31
2018-12-24T00:08:46.383Z,7.32
2018-12-24T00:09:17.533Z,7.32
2018-12-24T00:09:48.689Z,7.29
2018-12-24T00:10:19.849Z,7.29
2018-12-24T00:10:51.007Z,7.26
2018-12-24T00:11:22.157Z,7.28
2018-12-24T00:11:53.305Z,7.28
2018-12-24T00:12:24.498Z,7.28
2018-12-24T00:12:55.649Z,7.28
2018-12-24T00:13:26.797Z,7.27
2018-12-24T00:13:57.986Z,7.28
2018-12-24T00:14:29.194Z,7.28
2018-12-24T00:15:00.352Z,7.30
2018-12-24T00:15:31.495Z,7.31
2018-12-24T00:16:02.642Z,7.31
2018-12-24T00:16:33.790Z,7.35
2018-12-24T00:17:05.011Z,7.36
2018-12-24T00:17:36.158Z,7.37
2018-12-24T00:18:07.340Z,7.38
2018-12-24T00:18:38.477Z,7.37
2018-12-24T00:19:09.661Z,7.35
2018-12-24T00:19:40.801Z,7.32
2018-12-24T00:20:11.954Z,7.27
2018-12-24T00:20:43.102Z,7.23
2018-12-24T00:21:14.246Z,7.19
2018-12-24T00:21:45.393Z,7.12
2018-12-24T00:22:16.563Z,7.08
2018-12-24T00:22:47.755Z,7.02
2018-12-24T00:23:18.918Z,6.97
2018-12-24T00:23:50.066Z,6.96
2018-12-24T00:24:21.224Z,6.93
2018-12-24T00:24:52.367Z,6.92
2018-12-24T00:25:23.516Z,6.90
2018-12-24T00:25:54.664Z,6.88
2018-12-24T00:26:25.860Z,6.87
2018-12-24T00:26:57.007Z,6.84
2018-12-24T00:27:28.241Z,6.82
2018-12-24T00:27:59.387Z,6.79
2018-12-24T00:28:30.542Z,6.75
2018-12-24T00:29:01.692Z,6.75
2018-12-24T00:29:32.841Z,6.76
2018-12-24T00:30:04.028Z,6.74
2018-12-24T00:30:35.140Z,6.75
2018-12-24T00:31:06.286Z,6.74
2018-12-24T00:31:37.491Z,6.74
2018-12-24T00:32:08.643Z,6.71
2018-12-24T00:32:39.794Z,6.70
2018-12-24T00:33:10.946Z,6.66
2018-12-24T00:33:42.096Z,6.63
2018-12-24T00:34:15.567Z,6.58
2018-12-24T00:34:46.722Z,6.58
2018-12-24T00:35:17.869Z,6.57
2018-12-24T00:35:49.015Z,6.54
2018-12-24T00:36:20.166Z,6.54
2018-12-24T00:36:51.363Z,6.52
2018-12-24T00:37:22.524Z,6.52
2018-12-24T00:37:53.674Z,6.51
2018-12-24T00:38:24.874Z,6.48
2018-12-24T00:38:56.072Z,6.47
2018-12-24T00:39:27.219Z,6.47
2018-12-24T00:39:58.374Z,6.45
2018-12-24T00:40:29.530Z,6.46
2018-12-24T00:41:00.693Z,6.47
2018-12-24T00:41:31.848Z,6.46
2018-12-24T00:42:02.996Z,6.48
2018-12-24T00:42:34.182Z,6.48
2018-12-24T00:43:05.347Z,6.51
2018-12-24T00:43:36.500Z,6.52
2018-12-24T00:44:07.643Z,6.54
2018-12-24T00:44:38.801Z,6.55
2018-12-24T00:45:09.955Z,6.55
2018-12-24T00:45:41.097Z,6.58
2018-12-24T00:46:12.252Z,6.62
2018-12-24T00:46:43.393Z,6.63
2018-12-24T00:47:14.550Z,6.63
2018-12-24T00:47:45.875Z,6.62
2018-12-24T00:48:17.100Z,6.64
2018-12-24T00:48:48.260Z,6.63
2018-12-24T00:49:19.393Z,6.63
2018-12-24T00:49:50.544Z,6.62
2018-12-24T00:50:21.746Z,6.64
2018-12-24T00:50:52.895Z,6.64
2018-12-24T00:51:24.059Z,6.63
2018-12-24T00:51:55.216Z,6.63
2018-12-24T00:52:26.363Z,6.63
2018-12-24T00:52:57.554Z,6.63
2018-12-24T00:53:28.711Z,6.62
2018-12-24T00:53:59.936Z,6.64
2018-12-24T00:54:31.094Z,6.63
2018-12-24T00:55:02.248Z,6.65
2018-12-24T00:55:33.398Z,6.65
2018-12-24T00:56:04.551Z,6.66
2018-12-24T00:56:35.695Z,6.64
2018-12-24T00:57:06.849Z,6.66
2018-12-24T00:57:38.000Z,6.65
2018-12-24T00:58:09.150Z,6.66
2018-12-24T00:58:40.408Z,6.67
2018-12-24T00:59:11.563Z,6.67
2018-12-24T00:59:42.721Z,6.66
2018-12-24T01:00:13.861Z,6.64
2018-12-24T01:00:45.003Z,6.63
2018-12-24T01:01:16.213Z,6.64
2018-12-24T01:01:48.909Z,6.66
2018-12-24T01:02:20.177Z,6.65
2018-12-24T01:02:51.325Z,6.65
2018-12-24T01:03:22.472Z,6.67
2018-12-24T01:03:53.613Z,6.70
2018-12-24T01:04:24.813Z,6.74
2018-12-24T01:04:56.116Z,6.77
2018-12-24T01:05:27.223Z,6.78
2018-12-24T01:05:58.358Z,6.79
2018-12-24T01:06:29.554Z,6.82
2018-12-24T01:07:00.698Z,6.79
2018-12-24T01:07:31.845Z,6.78
2018-12-24T01:08:02.988Z,6.81
2018-12-24T01:08:34.139Z,6.87
2018-12-24T01:09:05.296Z,6.92
2018-12-24T01:09:36.441Z,6.96
2018-12-24T01:10:07.597Z,7.02
2018-12-24T01:10:38.742Z,7.10
2018-12-24T01:11:09.947Z,7.17
2018-12-24T01:11:41.078Z,7.23
2018-12-24T01:12:12.224Z,7.29
2018-12-24T01:12:43.371Z,7.31
2018-12-24T01:13:14.520Z,7.34
2018-12-24T01:13:45.671Z,7.32
2018-12-24T01:14:16.827Z,7.35
2018-12-24T01:14:47.991Z,7.38
2018-12-24T01:15:19.151Z,7.39
2018-12-24T01:15:50.293Z,7.41
2018-12-24T01:16:21.486Z,7.43
2018-12-24T01:16:52.642Z,7.44
2018-12-24T01:17:23.783Z,7.43
2018-12-24T01:17:54.945Z,7.45
2018-12-24T01:18:26.091Z,7.47
2018-12-24T01:18:57.243Z,7.48
2018-12-24T01:19:28.417Z,7.49
2018-12-24T01:19:59.556Z,7.50
2018-12-24T01:20:30.703Z,7.50
2018-12-24T01:21:01.898Z,7.49
2018-12-24T01:21:33.048Z,7.48
2018-12-24T01:22:04.191Z,7.47
2018-12-24T01:22:35.346Z,7.43
2018-12-24T01:23:06.571Z,7.44
2018-12-24T01:23:37.713Z,7.47
2018-12-24T01:24:08.854Z,7.49
2018-12-24T01:24:40.159Z,7.52
2018-12-24T01:25:11.306Z,7.54
2018-12-24T01:25:42.449Z,7.56
2018-12-24T01:26:13.603Z,7.55
2018-12-24T01:26:44.743Z,7.53
2018-12-24T01:27:15.897Z,7.52
2018-12-24T01:27:47.043Z,7.51
2018-12-24T01:28:18.306Z,7.46
2018-12-24T01:28:49.423Z,7.46
2018-12-24T01:29:20.567Z,7.45
2018-12-24T01:29:51.760Z,7.44
2018-12-24T01:30:22.913Z,7.41
2018-12-24T01:30:54.072Z,7.41
2018-12-24T01:31:25.220Z,7.40
2018-12-24T01:31:56.375Z,7.37
2018-12-24T01:32:27.528Z,7.35
2018-12-24T01:32:58.723Z,7.29
2018-12-24T01:33:29.923Z,7.25
2018-12-24T01:34:01.066Z,7.24
2018-12-24T01:34:32.213Z,7.22
2018-12-24T01:35:03.363Z,7.17
2018-12-24T01:35:34.511Z,7.14
2018-12-24T01:36:05.699Z,7.12
2018-12-24T01:36:36.842Z,7.11
2018-12-24T01:37:07.988Z,7.09
2018-12-24T01:37:39.142Z,7.09
2018-12-24T01:38:10.291Z,7.10
2018-12-24T01:38:41.479Z,7.11
2018-12-24T01:39:12.622Z,7.12
2018-12-24T01:39:43.809Z,7.09
2018-12-24T01:40:14.921Z,7.08
2018-12-24T01:40:46.145Z,7.09
2018-12-24T01:41:17.282Z,7.10
2018-12-24T01:41:48.427Z,7.12
2018-12-24T01:42:19.577Z,7.13
2018-12-24T01:42:50.776Z,7.16
2018-12-24T01:43:21.931Z,7.17
2018-12-24T01:43:53.066Z,7.20
2018-12-24T01:44:24.220Z,7.20
2018-12-24T01:44:57.447Z,7.22
2018-12-24T01:45:28.678Z,7.24
2018-12-24T01:46:02.874Z,7.28
2018-12-24T01:46:34.029Z,7.31
2018-12-24T01:47:05.175Z,7.37
2018-12-24T01:47:36.376Z,7.41
2018-12-24T01:48:07.518Z,7.43
2018-12-24T01:48:38.664Z,7.46
2018-12-24T01:49:09.821Z,7.50
2018-12-24T01:49:40.987Z,7.52
2018-12-24T01:50:12.112Z,7.52
2018-12-24T01:50:43.263Z,7.58
2018-12-24T01:51:14.410Z,7.61
2018-12-24T01:51:45.553Z,7.66
2018-12-24T01:52:16.737Z,7.76
2018-12-24T01:52:47.886Z,7.84
2018-12-24T01:53:19.028Z,7.92
2018-12-24T01:53:50.180Z,7.96
2018-12-24T01:54:21.412Z,8.00
2018-12-24T01:54:52.543Z,8.04
2018-12-24T01:55:23.710Z,8.05
2018-12-24T01:55:54.861Z,8.06
2018-12-24T01:56:26.016Z,8.07
2018-12-24T01:56:57.202Z,8.08
2018-12-24T01:57:28.381Z,8.09
2018-12-24T01:57:59.520Z,8.08
2018-12-24T01:58:30.663Z,8.08
2018-12-24T01:59:01.810Z,8.07
2018-12-24T01:59:32.966Z,8.06
2018-12-24T02:00:04.099Z,8.08
2018-12-24T02:00:35.284Z,8.04
2018-12-24T02:01:06.434Z,8.05
2018-12-24T02:01:37.586Z,8.05
2018-12-24T02:02:08.734Z,8.05
2018-12-24T02:02:39.936Z,8.07
2018-12-24T02:03:11.091Z,8.09
2018-12-24T02:03:42.247Z,8.10
2018-12-24T02:04:13.376Z,8.09
2018-12-24T02:04:44.523Z,8.10
2018-12-24T02:05:15.677Z,8.11
2018-12-24T02:05:46.824Z,8.11
2018-12-24T02:06:17.968Z,8.10
2018-12-24T02:06:49.183Z,8.11
2018-12-24T02:07:20.348Z,8.13
2018-12-24T02:07:51.526Z,8.14
2018-12-24T02:08:22.721Z,8.11
2018-12-24T02:08:53.928Z,8.11
2018-12-24T02:09:25.081Z,8.14
2018-12-24T02:09:56.280Z,8.19
2018-12-24T02:10:27.468Z,8.23
2018-12-24T02:10:58.613Z,8.25
2018-12-24T02:11:29.763Z,8.27
2018-12-24T02:12:00.915Z,8.28
2018-12-24T02:12:32.068Z,8.27
2018-12-24T02:13:03.214Z,8.26
2018-12-24T02:13:34.377Z,8.25
2018-12-24T02:14:05.579Z,8.22
2018-12-24T02:14:36.726Z,8.21
2018-12-24T02:15:07.924Z,8.21
2018-12-24T02:15:39.080Z,8.20
2018-12-24T02:16:10.236Z,8.19
2018-12-24T02:16:41.386Z,8.17
2018-12-24T02:17:12.534Z,8.14
2018-12-24T02:17:43.680Z,8.12
2018-12-24T02:18:14.990Z,8.10
2018-12-24T02:18:46.132Z,8.08
2018-12-24T02:19:17.279Z,8.07
2018-12-24T02:19:48.484Z,8.06
2018-12-24T02:20:19.631Z,8.01
2018-12-24T02:20:50.810Z,8.01
2018-12-24T02:21:22.105Z,7.99
2018-12-24T02:21:53.255Z,7.96
2018-12-24T02:22:24.406Z,7.94
2018-12-24T02:22:55.563Z,7.90
2018-12-24T02:23:26.720Z,7.86
2018-12-24T02:23:57.928Z,7.84
2018-12-24T02:24:29.092Z,7.83
2018-12-24T02:25:00.315Z,7.80
2018-12-24T02:25:31.527Z,7.79
2018-12-24T02:26:02.679Z,7.79
2018-12-24T02:26:33.869Z,7.82
2018-12-24T02:27:05.018Z,7.84
2018-12-24T02:27:36.173Z,7.86
2018-12-24T02:28:07.328Z,7.87
2018-12-24T02:28:38.483Z,7.87
2018-12-24T02:29:09.637Z,7.86
2018-12-24T02:29:40.803Z,7.85
2018-12-24T02:30:11.974Z,7.85
2018-12-24T02:30:43.127Z,7.84
2018-12-24T02:31:14.282Z,7.82
2018-12-24T02:31:45.480Z,7.79
2018-12-24T02:32:16.624Z,7.75
2018-12-24T02:32:47.786Z,7.74
2018-12-24T02:33:18.955Z,7.71
2018-12-24T02:33:50.102Z,7.71
2018-12-24T02:34:21.243Z,7.69
2018-12-24T02:34:52.400Z,7.68
2018-12-24T02:35:23.558Z,7.67
2018-12-24T02:35:54.706Z,7.67
2018-12-24T02:36:25.850Z,7.63
2018-12-24T02:36:57.058Z,7.64
2018-12-24T02:37:28.206Z,7.65
2018-12-24T02:37:59.357Z,7.66
2018-12-24T02:38:30.515Z,7.66
2018-12-24T02:39:01.798Z,7.65
2018-12-24T02:39:32.993Z,7.64
2018-12-24T02:40:04.142Z,7.63
2018-12-24T02:40:35.353Z,7.61
2018-12-24T02:41:06.504Z,7.58
2018-12-24T02:41:37.652Z,7.54
2018-12-24T02:42:08.856Z,7.51
2018-12-24T02:42:40.002Z,7.51
2018-12-24T02:43:11.144Z,7.50
2018-12-24T02:43:42.299Z,7.48
2018-12-24T02:44:13.456Z,7.47
2018-12-24T02:44:44.609Z,7.45
2018-12-24T02:45:15.818Z,7.38
2018-12-24T02:45:46.975Z,7.35
2018-12-24T02:46:18.128Z,7.31
2018-12-24T02:46:49.281Z,7.28
2018-12-24T02:47:20.488Z,7.23
2018-12-24T02:47:51.636Z,7.21
2018-12-24T02:48:22.784Z,7.18
2018-12-24T02:48:53.935Z,7.14
2018-12-24T02:49:25.089Z,7.13
2018-12-24T02:49:56.243Z,7.12
2018-12-24T02:50:27.397Z,7.06
2018-12-24T02:50:58.553Z,7.04
2018-12-24T02:51:29.713Z,7.01
2018-12-24T02:52:00.861Z,6.98
2018-12-24T02:52:32.059Z,6.93
2018-12-24T02:53:03.204Z,6.93
2018-12-24T02:53:34.372Z,6.93
2018-12-24T02:54:05.508Z,6.93
2018-12-24T02:54:36.648Z,6.93
2018-12-24T02:55:07.796Z,6.92
2018-12-24T02:55:38.987Z,6.89
2018-12-24T02:56:10.138Z,6.92
2018-12-24T02:56:41.286Z,6.94
2018-12-24T02:57:12.436Z,6.93
2018-12-24T02:57:44.859Z,6.95
2018-12-24T02:58:15.934Z,6.93
2018-12-24T02:58:47.097Z,6.89
2018-12-24T02:59:18.245Z,6.90
2018-12-24T02:59:49.457Z,6.92
2018-12-24T03:00:20.600Z,6.93
2018-12-24T03:00:51.743Z,6.93
2018-12-24T03:01:22.914Z,6.91
2018-12-24T03:01:54.057Z,6.90
2018-12-24T03:02:25.207Z,6.86
2018-12-24T03:02:56.365Z,6.86
2018-12-24T03:03:27.513Z,6.85
2018-12-24T03:03:58.706Z,6.82
2018-12-24T03:04:29.872Z,6.81
2018-12-24T03:05:01.026Z,6.81
2018-12-24T03:05:32.186Z,6.81
2018-12-24T03:06:03.323Z,6.77
2018-12-24T03:06:34.493Z,6.74
2018-12-24T03:07:05.702Z,6.74
2018-12-24T03:07:36.847Z,6.76
2018-12-24T03:08:08.001Z,6.78
2018-12-24T03:08:39.150Z,6.79
2018-12-24T03:09:10.300Z,6.79
2018-12-24T03:09:41.453Z,6.82
2018-12-24T03:10:12.610Z,6.82
2018-12-24T03:10:43.829Z,6.82
2018-12-24T03:11:14.977Z,6.84
2018-12-24T03:11:46.122Z,6.84
2018-12-24T03:12:17.319Z,6.85
2018-12-24T03:12:48.474Z,6.87
2018-12-24T03:13:19.619Z,6.85
2018-12-24T03:13:50.803Z,6.84
2018-12-24T03:14:21.947Z,6.85
2018-12-24T03:14:53.085Z,6.84
2018-12-24T03:15:24.239Z,6.84
2018-12-24T03:15:55.408Z,6.85
2018-12-24T03:16:26.553Z,6.86
2018-12-24T03:16:57.709Z,6.84
2018-12-24T03:17:28.904Z,6.85
2018-12-24T03:18:00.059Z,6.83
2018-12-24T03:18:31.201Z,6.82
2018-12-24T03:19:02.361Z,6.83
2018-12-24T03:19:33.503Z,6.82
2018-12-24T03:20:04.655Z,6.82
2018-12-24T03:20:35.805Z,6.82
2018-12-24T03:21:06.964Z,6.84
2018-12-24T03:21:38.163Z,6.89
2018-12-24T03:22:09.316Z,6.90
2018-12-24T03:22:40.489Z,6.91
2018-12-24T03:23:11.615Z,6.91
2018-12-24T03:23:42.787Z,6.91
2018-12-24T03:24:13.934Z,6.93
2018-12-24T03:24:45.075Z,6.93
2018-12-24T03:25:16.279Z,6.95
2018-12-24T03:25:47.433Z,6.94
2018-12-24T03:26:18.573Z,6.95
2018-12-24T03:26:49.725Z,6.97
2018-12-24T03:27:20.881Z,6.96
2018-12-24T03:27:52.026Z,6.98
2018-12-24T03:28:23.182Z,6.98
2018-12-24T03:28:54.371Z,7.00
2018-12-24T03:29:25.532Z,7.03
2018-12-24T03:29:56.688Z,7.02
2018-12-24T03:30:27.844Z,7.05
2018-12-24T03:31:00.783Z,7.11
2018-12-24T03:31:35.019Z,7.14
2018-12-24T03:32:06.174Z,7.09
2018-12-24T03:32:37.338Z,7.10
2018-12-24T03:33:08.476Z,7.11
2018-12-24T03:33:39.627Z,7.13
2018-12-24T03:34:10.823Z,7.13
2018-12-24T03:34:41.963Z,7.15
2018-12-24T03:35:13.105Z,7.14
2018-12-24T03:35:44.270Z,7.14
2018-12-24T03:36:15.403Z,7.15
2018-12-24T03:36:46.546Z,7.16
2018-12-24T03:37:17.700Z,7.17
2018-12-24T03:37:48.895Z,7.18
2018-12-24T03:38:20.063Z,7.17
2018-12-24T03:38:51.217Z,7.16
2018-12-24T03:39:22.348Z,7.16
2018-12-24T03:39:53.531Z,7.17
2018-12-24T03:40:24.750Z,7.17
2018-12-24T03:40:55.895Z,7.17
2018-12-24T03:41:27.054Z,7.21
2018-12-24T03:41:58.193Z,7.24
2018-12-24T03:42:29.462Z,7.28
2018-12-24T03:43:00.710Z,7.32
2018-12-24T03:43:31.851Z,7.32
2018-12-24T03:44:03.059Z,7.34
2018-12-24T03:44:34.251Z,7.35
2018-12-24T03:45:05.412Z,7.37
2018-12-24T03:45:36.565Z,7.41
2018-12-24T03:46:07.714Z,7.44
2018-12-24T03:46:38.866Z,7.47
2018-12-24T03:47:10.161Z,7.50
2018-12-24T03:47:41.313Z,7.53
2018-12-24T03:48:12.487Z,7.53
2018-12-24T03:48:43.695Z,7.55
2018-12-24T03:49:14.853Z,7.56
2018-12-24T03:49:46.001Z,7.56
2018-12-24T03:50:17.157Z,7.55
2018-12-24T03:50:48.307Z,7.51
2018-12-24T03:51:19.469Z,7.48
2018-12-24T03:51:50.632Z,7.43
2018-12-24T03:52:21.820Z,7.40
2018-12-24T03:52:53.027Z,7.36
2018-12-24T03:53:24.186Z,7.30
2018-12-24T03:53:55.389Z,7.27
2018-12-24T03:54:26.537Z,7.22
2018-12-24T03:54:57.686Z,7.16
2018-12-24T03:55:28.835Z,7.12
2018-12-24T03:55:59.987Z,7.09
2018-12-24T03:56:31.132Z,7.07
2018-12-24T03:57:02.277Z,7.05
2018-12-24T03:57:33.420Z,7.01
2018-12-24T03:58:04.573Z,6.96
2018-12-24T03:58:35.728Z,6.96
2018-12-24T03:59:06.936Z,6.95
2018-12-24T03:59:39.400Z,6.90
2018-12-24T04:00:10.496Z,6.86
2018-12-24T04:00:41.656Z,6.75
2018-12-24T04:01:12.799Z,6.70
2018-12-24T04:01:43.952Z,6.69
2018-12-24T04:02:15.097Z,6.66
2018-12-24T04:02:46.239Z,6.64
2018-12-24T04:03:17.389Z,6.63
2018-12-24T04:03:48.540Z,6.58
2018-12-24T04:04:19.730Z,6.55
2018-12-24T04:04:50.874Z,6.51
2018-12-24T04:05:22.177Z,6.53
2018-12-24T04:05:53.259Z,6.55
2018-12-24T04:06:24.402Z,6.53
2018-12-24T04:06:55.563Z,6.52
2018-12-24T04:07:26.712Z,6.45
2018-12-24T04:07:58.030Z,6.43
2018-12-24T04:08:29.194Z,6.37
2018-12-24T04:09:00.341Z,6.37
2018-12-24T04:09:31.549Z,6.33
2018-12-24T04:10:02.695Z,6.29
2018-12-24T04:10:33.828Z,6.29
2018-12-24T04:11:04.974Z,6.29
2018-12-24T04:11:36.136Z,6.32
2018-12-24T04:12:07.287Z,6.38
2018-12-24T04:12:38.430Z,6.38
2018-12-24T04:13:09.589Z,6.40
2018-12-24T04:13:40.740Z,6.44
2018-12-24T04:14:11.948Z,6.47
2018-12-24T04:14:43.104Z,6.51
2018-12-24T04:15:14.280Z,6.50
2018-12-24T04:15:45.593Z,6.51
2018-12-24T04:16:16.692Z,6.47
2018-12-24T04:16:47.850Z,6.45
2018-12-24T04:17:19.003Z,6.44
2018-12-24T04:17:50.200Z,6.41
2018-12-24T04:18:21.362Z,6.40
2018-12-24T04:18:52.554Z,6.36
2018-12-24T04:19:23.703Z,6.35
2018-12-24T04:19:54.899Z,6.34
2018-12-24T04:20:26.055Z,6.34
2018-12-24T04:20:57.217Z,6.34
2018-12-24T04:21:28.373Z,6.33
2018-12-24T04:22:02.288Z,6.31
2018-12-24T04:22:33.445Z,6.30
2018-12-24T04:23:04.600Z,6.27
2018-12-24T04:23:35.756Z,6.24
2018-12-24T04:24:06.903Z,6.19
2018-12-24T04:24:38.092Z,6.15
2018-12-24T04:25:09.267Z,6.09
2018-12-24T04:25:40.399Z,6.03
2018-12-24T04:26:11.559Z,5.93
2018-12-24T04:26:42.715Z,5.87
2018-12-24T04:27:13.874Z,5.81
2018-12-24T04:27:45.099Z,5.74
2018-12-24T04:28:16.293Z,5.71
2018-12-24T04:28:47.443Z,5.69
2018-12-24T04:29:18.596Z,5.64
2018-12-24T04:29:49.761Z,5.65
2018-12-24T04:30:20.917Z,5.65
2018-12-24T04:30:52.057Z,5.65
2018-12-24T04:31:23.213Z,5.62
2018-12-24T04:31:54.368Z,5.62
2018-12-24T04:32:25.510Z,5.61
2018-12-24T04:32:56.655Z,5.59
2018-12-24T04:33:27.852Z,5.59
2018-12-24T04:33:59.023Z,5.59
2018-12-24T04:34:30.174Z,5.58
2018-12-24T04:35:01.334Z,5.55
2018-12-24T04:35:32.485Z,5.53
2018-12-24T04:36:03.637Z,5.49
2018-12-24T04:36:34.788Z,5.45
2018-12-24T04:37:05.936Z,5.41
2018-12-24T04:37:37.091Z,5.40
2018-12-24T04:38:08.239Z,5.37
2018-12-24T04:38:39.429Z,5.35
2018-12-24T04:39:10.584Z,5.34
2018-12-24T04:39:41.731Z,5.33
2018-12-24T04:40:12.889Z,5.33
2018-12-24T04:40:44.053Z,5.34
2018-12-24T04:41:15.221Z,5.33
2018-12-24T04:41:46.384Z,5.31
2018-12-24T04:42:17.584Z,5.29
2018-12-24T04:42:48.739Z,5.27
2018-12-24T04:43:19.890Z,5.21
2018-12-24T04:43:51.037Z,5.15
2018-12-24T04:44:22.183Z,5.12
2018-12-24T04:44:53.339Z,5.10
2018-12-24T04:45:24.487Z,5.06
2018-12-24T04:45:55.631Z,5.03
2018-12-24T04:46:26.774Z,4.99
2018-12-24T04:46:57.931Z,4.97
2018-12-24T04:47:29.124Z,4.94
2018-12-24T04:48:00.275Z,4.90
2018-12-24T04:48:31.436Z,4.86
2018-12-24T04:49:02.577Z,4.82
2018-12-24T04:49:33.729Z,4.78
2018-12-24T04:50:04.933Z,4.76
2018-12-24T04:50:36.074Z,4.77
2018-12-24T04:51:07.232Z,4.80
2018-12-24T04:51:38.385Z,4.81
2018-12-24T04:52:09.539Z,4.85
2018-12-24T04:52:40.698Z,4.87
2018-12-24T04:53:11.855Z,4.89
2018-12-24T04:53:43.010Z,4.91
2018-12-24T04:54:14.160Z,4.93
2018-12-24T04:54:45.400Z,4.95
2018-12-24T04:55:18.031Z,4.95
2018-12-24T04:55:49.178Z,4.91
2018-12-24T04:56:20.323Z,4.88
2018-12-24T04:56:51.481Z,4.82
2018-12-24T04:57:22.676Z,4.80
2018-12-24T04:57:53.823Z,4.76
2018-12-24T04:58:24.994Z,4.77
2018-12-24T04:58:56.154Z,4.77
2018-12-24T04:59:27.310Z,4.73
2018-12-24T04:59:58.460Z,4.71
2018-12-24T05:00:29.603Z,4.67
2018-12-24T05:01:00.810Z,4.65
2018-12-24T05:01:31.961Z,4.57
2018-12-24T05:02:03.118Z,4.52
2018-12-24T05:02:34.268Z,4.47
2018-12-24T05:03:05.417Z,4.40
2018-12-24T05:03:36.571Z,4.35
2018-12-24T05:04:07.717Z,4.33
2018-12-24T05:04:38.884Z,4.32
2018-12-24T05:05:10.038Z,4.30
2018-12-24T05:05:41.183Z,4.29
2018-12-24T05:06:12.361Z,4.29
2018-12-24T05:06:43.557Z,4.31
2018-12-24T05:07:14.711Z,4.31
2018-12-24T05:07:45.865Z,4.34
2018-12-24T05:08:17.008Z,4.34
2018-12-24T05:08:48.161Z,4.33
2018-12-24T05:09:19.319Z,4.32
2018-12-24T05:09:50.460Z,4.31
2018-12-24T05:10:21.684Z,4.30
2018-12-24T05:10:52.875Z,4.27
2018-12-24T05:11:24.047Z,4.25
2018-12-24T05:11:55.241Z,4.24
2018-12-24T05:12:26.393Z,4.23
2018-12-24T05:12:57.561Z,4.24
2018-12-24T05:13:28.710Z,4.21
2018-12-24T05:13:59.849Z,4.19
2018-12-24T05:14:31.004Z,4.19
2018-12-24T05:15:02.157Z,4.18
2018-12-24T05:15:33.315Z,4.21
2018-12-24T05:16:04.462Z,4.22
2018-12-24T05:16:35.613Z,4.24
2018-12-24T05:17:06.792Z,4.26
2018-12-24T05:17:37.952Z,4.28
2018-12-24T05:18:09.104Z,4.31
2018-12-24T05:18:40.260Z,4.30
2018-12-24T05:19:11.536Z,4.29
2018-12-24T05:19:42.694Z,4.29
2018-12-24T05:20:13.853Z,4.28
2018-12-24T05:20:45.001Z,4.23
2018-12-24T05:21:16.192Z,4.14
2018-12-24T05:21:47.345Z,4.06
2018-12-24T05:22:18.501Z,4.02
2018-12-24T05:22:49.660Z,3.98
2018-12-24T05:23:20.848Z,3.97
2018-12-24T05:23:51.996Z,3.96
2018-12-24T05:24:23.197Z,3.98
2018-12-24T05:24:54.356Z,3.98
2018-12-24T05:25:25.500Z,3.98
2018-12-24T05:25:56.645Z,4.00
2018-12-24T05:26:27.787Z,4.02
2018-12-24T05:26:58.988Z,4.04
2018-12-24T05:27:30.127Z,4.04
2018-12-24T05:28:01.276Z,4.05
2018-12-24T05:28:32.423Z,4.05
2018-12-24T05:29:03.581Z,4.06
2018-12-24T05:29:34.786Z,4.04
2018-12-24T05:30:05.925Z,4.01
2018-12-24T05:30:37.080Z,4.02
2018-12-24T05:31:08.230Z,4.02
2018-12-24T05:31:39.378Z,3.99
2018-12-24T05:32:10.537Z,3.95
2018-12-24T05:32:41.680Z,3.95
2018-12-24T05:33:12.843Z,3.96
2018-12-24T05:33:44.061Z,3.97
2018-12-24T05:34:15.172Z,3.97
2018-12-24T05:34:46.321Z,3.98
2018-12-24T05:35:17.470Z,3.98
2018-12-24T05:35:48.679Z,4.00
2018-12-24T05:36:19.823Z,4.01
2018-12-24T05:36:51.021Z,4.02
2018-12-24T05:37:22.168Z,4.02
2018-12-24T05:37:53.315Z,4.02
2018-12-24T05:38:24.454Z,4.03
2018-12-24T05:38:55.597Z,4.02
2018-12-24T05:39:26.744Z,4.01
2018-12-24T05:39:57.895Z,4.01
2018-12-24T05:40:29.050Z,4.00
2018-12-24T05:41:00.206Z,3.99
2018-12-24T05:41:31.358Z,3.99
2018-12-24T05:42:02.563Z,4.02
2018-12-24T05:42:33.705Z,4.03
2018-12-24T05:43:04.852Z,4.03
2018-12-24T05:43:36.029Z,4.03
2018-12-24T05:44:07.190Z,4.04
2018-12-24T05:44:38.343Z,4.04
2018-12-24T05:45:09.493Z,4.03
2018-12-24T05:45:40.640Z,4.01
2018-12-24T05:46:11.787Z,4.00
2018-12-24T05:46:42.942Z,3.98
2018-12-24T05:47:14.133Z,3.98
2018-12-24T05:47:45.304Z,3.93
2018-12-24T05:48:16.456Z,3.92
2018-12-24T05:48:47.618Z,3.86
2018-12-24T05:49:18.751Z,1.64
2018-12-24T05:49:49.934Z,3.82
2018-12-24T05:50:21.091Z,3.87
2018-12-24T05:50:52.254Z,3.87
2018-12-24T05:51:25.164Z,3.90
2018-12-24T05:51:56.366Z,3.89
2018-12-24T05:52:27.517Z,3.90
2018-12-24T05:52:58.657Z,3.91
2018-12-24T05:53:29.806Z,3.91
2018-12-24T05:54:00.960Z,3.93
2018-12-24T05:54:32.105Z,3.92
2018-12-24T05:55:03.246Z,3.89
2018-12-24T05:55:34.396Z,3.87
2018-12-24T05:56:05.544Z,3.82
2018-12-24T05:56:36.744Z,3.72
2018-12-24T05:57:07.894Z,3.63
2018-12-24T05:57:39.055Z,3.55
2018-12-24T05:58:10.207Z,3.57
2018-12-24T05:58:41.365Z,3.58
2018-12-24T05:59:12.558Z,3.62
2018-12-24T05:59:43.709Z,3.64
2018-12-24T06:00:14.864Z,3.66
2018-12-24T06:00:46.066Z,3.69
2018-12-24T06:01:17.222Z,3.72
2018-12-24T06:01:48.370Z,3.72
2018-12-24T06:02:19.527Z,3.74
2018-12-24T06:02:50.671Z,3.72
2018-12-24T06:03:21.821Z,3.69
2018-12-24T06:03:52.971Z,3.68
2018-12-24T06:04:24.177Z,3.69
2018-12-24T06:04:55.333Z,3.66
2018-12-24T06:05:26.492Z,3.66
2018-12-24T06:05:57.643Z,3.67
2018-12-24T06:06:28.803Z,3.69
2018-12-24T06:06:59.954Z,3.72
2018-12-24T06:07:31.100Z,3.76
2018-12-24T06:08:02.251Z,3.82
2018-12-24T06:08:33.452Z,3.86
2018-12-24T06:09:04.599Z,3.89
2018-12-24T06:09:35.756Z,3.93
2018-12-24T06:10:06.912Z,3.96
2018-12-24T06:10:38.067Z,3.99
2018-12-24T06:11:09.223Z,4.03
2018-12-24T06:11:40.365Z,4.08
2018-12-24T06:12:11.518Z,4.10
2018-12-24T06:12:42.754Z,4.13
2018-12-24T06:13:13.924Z,4.16
2018-12-24T06:13:45.128Z,4.18
2018-12-24T06:14:16.285Z,4.22
2018-12-24T06:14:47.427Z,4.24
2018-12-24T06:15:18.593Z,4.25
2018-12-24T06:15:49.740Z,4.27
2018-12-24T06:16:20.889Z,4.30
2018-12-24T06:16:52.043Z,4.35
2018-12-24T06:17:23.218Z,4.39
2018-12-24T06:17:54.374Z,3.43
2018-12-24T06:18:25.526Z,4.43
2018-12-24T06:18:56.709Z,4.47
2018-12-24T06:19:27.863Z,4.51
2018-12-24T06:19:59.004Z,4.53
2018-12-24T06:20:37.531Z,4.55
2018-12-24T06:21:03.021Z,4.56
2018-12-24T06:21:34.182Z,4.57
2018-12-24T06:22:05.332Z,4.59
2018-12-24T06:22:39.074Z,4.61
2018-12-24T06:23:10.230Z,4.64
2018-12-24T06:23:41.422Z,4.65
2018-12-24T06:24:12.617Z,3.68
2018-12-24T06:24:43.781Z,4.70
2018-12-24T06:25:14.939Z,4.74
2018-12-24T06:25:46.110Z,4.78
2018-12-24T06:26:17.271Z,4.81
2018-12-24T06:26:48.424Z,4.83
2018-12-24T06:27:19.582Z,4.84
2018-12-24T06:27:50.736Z,4.86
2018-12-24T06:28:21.922Z,4.88
2018-12-24T06:28:54.415Z,4.90
2018-12-24T06:29:26.786Z,4.89
2018-12-24T06:29:57.945Z,4.91
2018-12-24T06:30:29.144Z,4.93
2018-12-24T06:31:00.305Z,4.94
2018-12-24T06:31:31.782Z,4.97
2018-12-24T06:32:02.959Z,4.98
2018-12-24T06:32:34.116Z,5.01
2018-12-24T06:33:05.278Z,5.06
2018-12-24T06:33:36.493Z,5.09
2018-12-24T06:34:07.679Z,5.19
2018-12-24T06:34:38.806Z,5.30
2018-12-24T06:35:09.987Z,5.42
2018-12-24T06:35:41.138Z,5.49
2018-12-24T06:36:12.337Z,5.57
2018-12-24T06:36:43.512Z,5.60
2018-12-24T06:37:14.741Z,5.62
2018-12-24T06:37:45.906Z,5.65
2018-12-24T06:38:17.055Z,5.70
2018-12-24T06:38:48.207Z,5.73
2018-12-24T06:39:19.366Z,5.77
2018-12-24T06:39:50.570Z,5.79
2018-12-24T06:40:21.722Z,5.75
2018-12-24T06:40:52.877Z,5.78
2018-12-24T06:41:24.029Z,5.82
2018-12-24T06:41:55.180Z,5.83
2018-12-24T06:42:26.342Z,5.83
2018-12-24T06:42:57.489Z,5.90
2018-12-24T06:43:28.633Z,5.99
2018-12-24T06:44:06.710Z,6.17
2018-12-24T06:44:32.656Z,6.36
2018-12-24T06:45:03.853Z,6.51
2018-12-24T06:45:34.998Z,6.56
2018-12-24T06:46:06.157Z,6.58
2018-12-24T06:46:37.300Z,6.58
2018-12-24T06:47:08.459Z,6.57
2018-12-24T06:47:39.609Z,6.64
2018-12-24T06:48:10.760Z,6.72
2018-12-24T06:48:41.901Z,6.77
2018-12-24T06:49:13.055Z,6.79
2018-12-24T06:49:44.307Z,6.80
2018-12-24T06:50:15.847Z,6.83
2018-12-24T06:50:47.103Z,6.84
2018-12-24T06:51:18.257Z,6.83
2018-12-24T06:51:49.412Z,6.84
2018-12-24T06:52:20.608Z,6.87
2018-12-24T06:52:51.759Z,6.95
2018-12-24T06:53:22.914Z,6.99
2018-12-24T06:53:54.063Z,7.06
2018-12-24T06:54:25.364Z,7.11
2018-12-24T06:54:56.529Z,7.15
2018-12-24T06:55:27.690Z,7.20
2018-12-24T06:55:58.842Z,7.22